Time;durP1;ratioP1;P1;durP2;ratioP2;P2;SDS_P1;SDS_P2;PMS_P1;PMS_P2;Temp;Humidity;BMP_temperature;BMP_pressure;BME280_temperature;BME280_humidity;BME280_pressure;Samples;Min_cycle;Max_cycle;Signal;HPM_P1;HPM_P2
2022/10/16 00:02:38;;;;;;;11.20;3.28;;;;;;;13.49;100.00;100888.94;4770610;30;20504;-62
2022/10/16 00:05:25;;;;;;;7.55;3.70;;;;;;;13.50;100.00;100891.41;4758430;30;20131;-61
2022/10/16 00:08:13;;;;;;;11.20;3.67;;;;;;;13.52;100.00;100889.22;4771643;30;20048;-61
2022/10/16 00:11:06;;;;;;;10.15;3.53;;;;;;;13.52;100.00;100883.72;4771407;30;20044;-62
2022/10/16 00:13:57;;;;;;;7.70;3.35;;;;;;;13.52;100.00;100889.22;4770494;30;20052;-61
2022/10/16 00:16:45;;;;;;;6.75;2.97;;;;;;;13.51;100.00;100884.81;4770828;30;20055;-58
2022/10/16 00:19:33;;;;;;;8.45;3.40;;;;;;;13.53;100.00;100882.63;4769624;30;20118;-62
2022/10/16 00:22:20;;;;;;;5.95;3.00;;;;;;;13.54;100.00;100884.28;4770540;30;20059;-62
2022/10/16 00:25:09;;;;;;;9.45;3.00;;;;;;;13.53;100.00;100887.28;4771520;30;20511;-62
2022/10/16 00:27:57;;;;;;;5.22;2.97;;;;;;;13.54;100.00;100894.38;4763469;30;20063;-61
2022/10/16 00:30:44;;;;;;;7.20;3.25;;;;;;;13.54;100.00;100883.44;4770297;30;20396;-62
2022/10/16 00:33:33;;;;;;;5.57;3.33;;;;;;;13.49;100.00;100884.28;4768958;30;20052;-62
2022/10/16 00:36:22;;;;;;;8.15;3.70;;;;;;;13.49;100.00;100892.50;4770187;30;20059;-62
2022/10/16 00:39:10;;;;;;;5.65;3.08;;;;;;;13.50;100.00;100894.16;4762607;30;20060;-66
2022/10/16 00:41:58;;;;;;;6.70;3.58;;;;;;;13.51;100.00;100887.56;4775693;30;20070;-59
2022/10/16 00:44:55;;;;;;;7.35;3.60;;;;;;;13.53;100.00;100892.75;4775980;30;20135;-61
2022/10/16 00:47:44;;;;;;;7.25;3.45;;;;;;;13.53;100.00;100893.56;4771597;30;20055;-63
2022/10/16 00:50:34;;;;;;;6.35;2.85;;;;;;;13.52;100.00;100888.41;4770043;30;20039;-63
2022/10/16 00:53:22;;;;;;;5.90;2.92;;;;;;;13.50;100.00;100896.88;4766827;30;20045;-62
2022/10/16 00:56:10;;;;;;;5.13;2.97;;;;;;;13.46;100.00;100898.53;4766710;30;20048;-62
2022/10/16 00:58:58;;;;;;;5.28;2.50;;;;;;;13.41;100.00;100893.13;4776198;30;20059;-61
2022/10/16 01:01:46;;;;;;;5.93;2.83;;;;;;;13.40;100.00;100895.03;4773050;30;20052;-63
2022/10/16 01:04:42;;;;;;;5.25;2.70;;;;;;;13.40;100.00;100906.00;4776694;30;20056;-61
2022/10/16 01:07:52;;;;;;;7.88;3.13;;;;;;;13.40;100.00;100896.97;4772270;30;20414;-63
2022/10/16 01:11:00;;;;;;;5.13;2.47;;;;;;;13.37;100.00;100889.31;4765219;30;20076;-62
2022/10/16 01:13:53;;;;;;;7.07;2.65;;;;;;;13.33;100.00;100877.31;4770448;30;20056;-62
2022/10/16 01:16:57;;;;;;;7.95;2.80;;;;;;;13.34;100.00;100881.66;4768886;30;20467;-62
2022/10/16 01:20:06;;;;;;;7.10;2.67;;;;;;;13.36;100.00;100879.47;4770170;30;20561;-62
2022/10/16 01:22:56;;;;;;;4.80;2.88;;;;;;;13.37;100.00;100883.84;4769403;30;20066;-60
2022/10/16 01:26:16;;;;;;;6.82;3.20;;;;;;;13.39;100.00;100887.09;4771541;30;20063;-61
2022/10/16 01:29:27;;;;;;;5.80;2.50;;;;;;;13.42;100.00;100894.75;4764036;30;20124;-60
2022/10/16 01:32:37;;;;;;;6.75;2.70;;;;;;;13.38;100.00;100899.16;4761420;30;20119;-61
2022/10/16 01:35:37;;;;;;;6.88;3.08;;;;;;;13.38;100.00;100894.50;4764681;30;20054;-61
2022/10/16 01:38:39;;;;;;;7.55;2.85;;;;;;;13.38;100.00;100891.78;4757749;30;20050;-62
2022/10/16 01:41:40;;;;;;;10.82;2.40;;;;;;;13.41;100.00;100890.38;4769151;30;20048;-62
2022/10/16 01:44:31;;;;;;;5.68;2.60;;;;;;;13.41;100.00;100890.38;4769027;30;20048;-61
2022/10/16 01:47:22;;;;;;;4.70;2.65;;;;;;;13.41;100.00;100887.66;4766560;30;20060;-61
2022/10/16 01:50:10;;;;;;;8.20;3.10;;;;;;;13.42;100.00;100892.84;4768254;30;20417;-62
2022/10/16 01:52:58;;;;;;;5.68;2.72;;;;;;;13.41;100.00;100895.84;4765125;30;20047;-60
2022/10/16 01:55:47;;;;;;;3.85;2.47;;;;;;;13.39;100.00;100889.84;4761047;30;20075;-62
2022/10/16 01:59:06;;;;;;;10.07;2.70;;;;;;;13.37;100.00;100889.31;4769254;30;20047;-62
2022/10/16 02:01:59;;;;;;;6.60;3.08;;;;;;;13.34;100.00;100898.09;4767540;30;20058;-61
2022/10/16 02:04:51;;;;;;;5.43;2.88;;;;;;;13.35;100.00;100897.00;4769709;30;20051;-62
2022/10/16 02:07:41;;;;;;;3.92;2.47;;;;;;;13.37;100.00;100901.09;4769794;30;20099;-60
2022/10/16 02:10:30;;;;;;;4.30;2.35;;;;;;;13.36;100.00;100901.38;4761138;30;20459;-62
2022/10/16 02:13:30;;;;;;;4.47;2.50;;;;;;;13.38;100.00;100890.97;4768716;30;20063;-61
2022/10/16 02:16:18;;;;;;;4.40;2.58;;;;;;;13.36;100.00;100899.44;4768900;30;20052;-62
2022/10/16 02:19:06;;;;;;;4.03;2.50;;;;;;;13.32;100.00;100908.50;4768880;30;20047;-62
2022/10/16 02:22:00;;;;;;;5.68;2.63;;;;;;;13.32;100.00;100913.97;4747679;30;20056;-62
2022/10/16 02:25:19;;;;;;;7.35;2.47;;;;;;;13.34;100.00;100914.50;4755733;30;20048;-62
2022/10/16 02:28:02;;;;;;;5.10;2.70;;;;;;;13.35;100.00;100907.97;4724990;30;20052;-63
2022/10/16 02:30:33;;;;;;;4.57;2.40;;;;;;;13.34;100.00;100900.84;4740320;30;20189;-62
2022/10/16 02:33:02;;;;;;;7.03;2.65;;;;;;;13.31;100.00;100895.94;4737763;30;20051;-62
2022/10/16 02:35:31;;;;;;;4.63;2.58;;;;;;;13.27;100.00;100894.81;4754252;30;20044;-59
2022/10/16 02:37:59;;;;;;;6.65;2.75;;;;;;;13.26;100.00;100893.22;4754482;30;20048;-62
2022/10/16 02:40:27;;;;;;;6.50;2.60;;;;;;;13.26;100.00;100904.16;4753110;30;20052;-62
2022/10/16 02:42:55;;;;;;;4.68;2.40;;;;;;;13.27;100.00;100894.81;4754353;30;20477;-62
2022/10/16 02:45:25;;;;;;;5.32;2.55;;;;;;;13.27;100.00;100905.78;4754334;30;20052;-63
2022/10/16 02:47:52;;;;;;;4.72;2.50;;;;;;;13.25;100.00;100911.53;4754402;30;20052;-62
2022/10/16 02:50:20;;;;;;;3.92;2.42;;;;;;;13.25;100.00;100916.19;4755332;30;20503;-62
2022/10/16 02:52:48;;;;;;;3.20;2.15;;;;;;;13.24;100.00;100909.91;4752526;30;20045;-62
2022/10/16 02:55:16;;;;;;;5.50;2.50;;;;;;;13.24;100.00;100900.88;4754068;30;20044;-63
2022/10/16 02:57:43;;;;;;;6.35;2.38;;;;;;;13.24;100.00;100906.34;4755193;30;20056;-63
2022/10/16 03:00:14;;;;;;;5.20;2.40;;;;;;;13.22;100.00;100891.03;4760817;30;20106;-63
2022/10/16 03:02:42;;;;;;;7.30;2.55;;;;;;;13.20;100.00;100898.72;4754950;30;20052;-62
2022/10/16 03:05:10;;;;;;;10.40;2.83;;;;;;;13.17;100.00;100896.53;4754803;30;20044;-63
2022/10/16 03:07:39;;;;;;;5.25;2.40;;;;;;;13.15;100.00;100898.72;4754927;30;20143;-63
2022/10/16 03:10:07;;;;;;;4.93;2.35;;;;;;;13.15;100.00;100904.19;4753523;30;20045;-63
2022/10/16 03:12:34;;;;;;;4.20;2.10;;;;;;;13.16;100.00;100908.59;4754466;30;20101;-63
2022/10/16 03:15:03;;;;;;;5.32;2.40;;;;;;;13.17;100.00;100912.94;4772398;30;20500;-63
2022/10/16 03:17:32;;;;;;;2.88;2.33;;;;;;;13.18;100.00;100914.59;4767006;30;20411;-61
2022/10/16 03:19:59;;;;;;;4.03;2.50;;;;;;;13.18;100.00;100908.28;4754894;30;20462;-63
2022/10/16 03:22:28;;;;;;;4.03;2.25;;;;;;;13.16;100.00;100913.25;4768011;30;20042;-62
2022/10/16 03:24:56;;;;;;;3.63;2.40;;;;;;;13.13;100.00;100916.53;4761010;30;20479;-62
2022/10/16 03:27:23;;;;;;;5.22;2.47;;;;;;;13.12;100.00;100921.19;4763660;30;20047;-63
2022/10/16 03:29:51;;;;;;;5.10;2.30;;;;;;;13.10;100.00;100928.84;4768254;30;20048;-62
2022/10/16 03:32:20;;;;;;;4.57;2.47;;;;;;;13.09;100.00;100938.16;4752887;30;20075;-60
2022/10/16 03:34:47;;;;;;;7.03;2.20;;;;;;;13.10;100.00;100928.03;4753075;30;20052;-62
2022/10/16 03:37:15;;;;;;;3.35;2.15;;;;;;;13.10;100.00;100936.25;4754555;30;20048;-56
2022/10/16 03:39:43;;;;;;;2.88;2.08;;;;;;;13.10;100.00;100934.31;4727346;30;20059;-58
2022/10/16 03:42:10;;;;;;;2.72;2.00;;;;;;;13.10;100.00;100945.25;4764952;30;20109;-58
2022/10/16 03:44:38;;;;;;;5.38;2.40;;;;;;;13.10;100.00;100938.97;4780029;30;20048;-60
2022/10/16 03:47:05;;;;;;;3.78;2.00;;;;;;;13.10;100.00;100934.31;4761239;30;20497;-62
2022/10/16 03:49:33;;;;;;;3.10;1.98;;;;;;;13.09;100.00;100929.97;4754431;30;20048;-62
2022/10/16 03:52:01;;;;;;;6.25;2.60;;;;;;;13.09;100.00;100945.56;4760177;30;20079;-61
2022/10/16 03:54:29;;;;;;;3.08;2.10;;;;;;;13.06;100.00;100930.53;4768852;30;20056;-60
2022/10/16 03:56:57;;;;;;;5.55;2.30;;;;;;;13.03;100.00;100933.00;4757085;30;20055;-60
2022/10/16 03:59:24;;;;;;;5.05;2.00;;;;;;;13.02;100.00;100942.31;4748760;30;20458;-61
2022/10/16 04:01:52;;;;;;;4.50;2.28;;;;;;;13.03;100.00;100944.75;4748607;30;20448;-62
2022/10/16 04:04:20;;;;;;;2.72;2.10;;;;;;;13.02;100.00;100943.13;4753343;30;20144;-62
2022/10/16 04:06:47;;;;;;;4.07;2.42;;;;;;;13.02;100.00;100948.59;4753097;30;20101;-63
2022/10/16 04:09:15;;;;;;;3.45;1.80;;;;;;;13.02;100.00;100948.59;4750650;30;20052;-62
2022/10/16 04:11:43;;;;;;;2.20;1.90;;;;;;;13.02;100.00;100947.78;4751424;30;20048;-62
2022/10/16 04:14:10;;;;;;;4.07;1.80;;;;;;;13.01;100.00;100944.22;4753901;30;20063;-62
2022/10/16 04:16:38;;;;;;;3.45;2.03;;;;;;;13.02;100.00;100958.72;4754237;30;20048;-62
2022/10/16 04:19:05;;;;;;;3.22;1.85;;;;;;;13.01;100.00;100957.88;4751286;30;20048;-62
2022/10/16 04:21:33;;;;;;;3.80;1.85;;;;;;;13.02;100.00;100956.81;4737569;30;20052;-62
2022/10/16 04:24:00;;;;;;;2.63;2.00;;;;;;;13.02;100.00;100959.53;4757308;30;20572;-62
2022/10/16 04:26:28;;;;;;;3.20;2.10;;;;;;;13.04;100.00;100960.09;4753800;30;20119;-62
2022/10/16 04:28:56;;;;;;;3.80;2.08;;;;;;;13.04;100.00;100965.56;4752865;30;20057;-61
2022/10/16 04:31:23;;;;;;;2.65;1.80;;;;;;;13.06;100.00;100966.09;4746143;30;20056;-62
2022/10/16 04:33:51;;;;;;;3.22;2.00;;;;;;;13.05;100.00;100969.09;4753547;30;20048;-61
2022/10/16 04:36:19;;;;;;;3.08;2.10;;;;;;;13.05;100.00;100967.19;4758870;30;20126;-61
2022/10/16 04:38:48;;;;;;;6.40;2.30;;;;;;;13.06;100.00;100957.06;4758789;30;20108;-62
2022/10/16 04:41:16;;;;;;;2.28;1.92;;;;;;;13.05;100.00;100963.63;4751271;30;20407;-60
2022/10/16 04:43:44;;;;;;;4.28;2.40;;;;;;;12.95;100.00;100959.03;4751951;30;20051;-58
2022/10/16 04:46:11;;;;;;;3.08;1.90;;;;;;;12.90;100.00;100972.72;4751850;30;20047;-59
2022/10/16 04:48:39;;;;;;;5.32;2.50;;;;;;;12.87;100.00;100976.00;4766795;30;20102;-60
2022/10/16 04:51:07;;;;;;;3.70;2.05;;;;;;;12.88;100.00;100974.91;4750463;30;20041;-61
2022/10/16 04:53:34;;;;;;;5.28;2.40;;;;;;;12.89;100.00;100984.75;4752657;30;20051;-60
2022/10/16 04:56:02;;;;;;;5.32;2.33;;;;;;;12.91;100.00;100985.28;4753115;30;20106;-58
2022/10/16 04:58:29;;;;;;;2.08;1.80;;;;;;;12.95;100.00;100983.66;4766950;30;20048;-59
2022/10/16 05:00:57;;;;;;;3.47;2.10;;;;;;;12.98;100.00;100989.34;4762077;30;20454;-59
2022/10/16 05:03:24;;;;;;;6.82;2.53;;;;;;;12.99;100.00;100991.00;4745725;30;20044;-58
2022/10/16 05:05:52;;;;;;;3.70;1.85;;;;;;;12.99;100.00;100990.19;4752277;30;20086;-57
2022/10/16 05:08:20;;;;;;;5.72;2.03;;;;;;;13.02;100.00;100989.63;4748872;30;20115;-61
2022/10/16 05:10:48;;;;;;;5.47;2.63;;;;;;;13.00;100.00;100991.81;4733869;30;20087;-61
2022/10/16 05:13:15;;;;;;;2.92;2.08;;;;;;;13.00;100.00;101000.03;4749750;30;20059;-61
2022/10/16 05:15:46;;;;;;;6.45;2.00;;;;;;;13.02;100.00;100997.03;4752063;30;20061;-61
2022/10/16 05:18:14;;;;;;;2.90;2.00;;;;;;;12.99;100.00;101007.44;4748427;30;20412;-62
2022/10/16 05:20:42;;;;;;;5.03;2.22;;;;;;;13.00;100.00;101005.50;4766570;30;20408;-61
2022/10/16 05:23:12;;;;;;;8.25;2.72;;;;;;;12.99;100.00;101015.63;4752804;30;20059;-58
2022/10/16 05:25:53;;;;;;;4.20;2.20;;;;;;;13.01;100.00;101020.81;4752918;30;20082;-61
2022/10/16 05:28:21;;;;;;;8.23;2.22;;;;;;;13.03;100.00;101020.53;4746894;30;20087;-58
2022/10/16 05:30:49;;;;;;;2.80;2.00;;;;;;;13.03;100.00;101026.00;4752877;30;20045;-60
2022/10/16 05:33:16;;;;;;;5.55;2.10;;;;;;;13.00;100.00;101028.19;4765249;30;20056;-61
2022/10/16 05:35:44;;;;;;;5.60;2.10;;;;;;;12.99;100.00;101036.69;4750492;30;20044;-60
2022/10/16 05:38:13;;;;;;;3.28;2.00;;;;;;;12.99;100.00;101033.97;4751325;30;20072;-61
2022/10/16 05:40:41;;;;;;;3.63;1.88;;;;;;;13.00;100.00;101043.78;4752763;30;20098;-60
2022/10/16 05:43:08;;;;;;;3.38;1.80;;;;;;;12.98;100.00;101056.94;4750976;30;20511;-61
2022/10/16 05:45:36;;;;;;;7.80;2.15;;;;;;;12.97;100.00;101058.03;4751344;30;20051;-61
2022/10/16 05:48:04;;;;;;;3.22;1.80;;;;;;;12.96;100.00;101061.84;4752729;30;20118;-57
2022/10/16 05:50:31;;;;;;;5.03;2.13;;;;;;;12.95;100.00;101071.97;4751468;30;20381;-59
2022/10/16 05:52:59;;;;;;;6.20;2.53;;;;;;;12.94;100.00;101074.97;4751272;30;20050;-61
2022/10/16 05:55:27;;;;;;;4.57;2.08;;;;;;;12.95;100.00;101080.19;4752846;30;20105;-59
2022/10/16 05:57:55;;;;;;;7.25;2.80;;;;;;;12.94;100.00;101089.50;4753311;30;20097;-60
2022/10/16 06:00:23;;;;;;;8.32;2.70;;;;;;;12.94;100.00;101099.59;4755510;30;20048;-59
2022/10/16 06:02:50;;;;;;;5.38;2.55;;;;;;;12.94;100.00;101100.44;4756140;30;20052;-61
2022/10/16 06:05:18;;;;;;;7.55;2.60;;;;;;;12.94;100.00;101102.34;4756095;30;20048;-58
2022/10/16 06:07:45;;;;;;;4.30;2.08;;;;;;;12.94;100.00;101105.06;4754229;30;20122;-60
2022/10/16 06:10:13;;;;;;;5.68;2.40;;;;;;;12.98;100.00;101106.16;4764785;30;20470;-61
2022/10/16 06:12:40;;;;;;;7.88;3.00;;;;;;;12.96;100.00;101113.81;4756263;30;20512;-61
2022/10/16 06:15:08;;;;;;;5.93;2.55;;;;;;;12.95;100.00;101114.94;4756416;30;20500;-59
2022/10/16 06:17:36;;;;;;;5.97;2.70;;;;;;;12.94;100.00;101113.28;4753324;30;20040;-61
2022/10/16 06:20:04;;;;;;;6.85;2.47;;;;;;;12.94;100.00;101116.00;4753540;30;20052;-61
2022/10/16 06:22:32;;;;;;;3.92;2.28;;;;;;;12.93;100.00;101119.84;4755720;30;20055;-60
2022/10/16 06:24:59;;;;;;;7.57;2.58;;;;;;;12.93;100.00;101126.13;4765710;30;20139;-59
2022/10/16 06:27:27;;;;;;;6.45;2.60;;;;;;;12.93;100.00;101133.53;4753175;30;20498;-61
2022/10/16 06:29:55;;;;;;;6.28;2.67;;;;;;;12.92;100.00;101124.50;4755630;30;20082;-64
2022/10/16 06:32:23;;;;;;;6.45;2.60;;;;;;;12.93;100.00;101133.53;4769243;30;20052;-60
2022/10/16 06:34:50;;;;;;;7.80;3.20;;;;;;;12.91;100.00;101136.53;4754061;30;20131;-60
2022/10/16 06:37:18;;;;;;;7.93;2.67;;;;;;;12.91;100.00;101136.53;4755411;30;20056;-57
2022/10/16 06:39:46;;;;;;;6.75;2.83;;;;;;;12.93;100.00;101147.19;4754550;30;20648;-60
2022/10/16 06:42:15;;;;;;;6.07;2.88;;;;;;;12.93;100.00;101145.28;4750390;30;20105;-59
2022/10/16 06:44:43;;;;;;;6.82;3.00;;;;;;;12.94;100.00;101148.81;4755014;30;20052;-59
2022/10/16 06:47:11;;;;;;;5.72;2.53;;;;;;;12.94;100.00;101157.03;4755701;30;20570;-58
2022/10/16 06:49:38;;;;;;;5.43;2.67;;;;;;;13.00;100.00;101167.69;4752730;30;20556;-59
2022/10/16 06:52:06;;;;;;;6.70;2.80;;;;;;;12.97;100.00;101161.97;4767517;30;20045;-58
2022/10/16 06:54:34;;;;;;;8.10;3.22;;;;;;;12.94;100.00;101165.22;4755097;30;20148;-56
2022/10/16 06:57:09;;;;;;;11.77;3.10;;;;;;;12.93;100.00;101166.34;4768028;30;20106;-58
2022/10/16 06:59:36;;;;;;;9.05;3.20;;;;;;;12.94;100.00;101165.22;4733793;30;20128;-54
2022/10/16 07:02:05;;;;;;;9.60;2.90;;;;;;;12.96;100.00;101174.00;4754693;30;20041;-59
2022/10/16 07:04:32;;;;;;;7.03;2.95;;;;;;;12.96;100.00;101184.94;4753676;30;20079;-56
2022/10/16 07:07:01;;;;;;;6.35;3.10;;;;;;;12.95;100.00;101191.50;4754452;30;20067;-56
2022/10/16 07:09:33;;;;;;;6.78;2.78;;;;;;;12.97;100.00;101186.59;4749940;30;20059;-61
2022/10/16 07:12:01;;;;;;;10.40;4.32;;;;;;;13.06;100.00;101193.16;4747298;30;20048;-59
2022/10/16 07:14:29;;;;;;;14.77;4.55;;;;;;;13.15;100.00;101193.38;4753836;30;20063;-59
2022/10/16 07:16:57;;;;;;;16.83;4.93;;;;;;;13.19;100.00;101194.50;4750781;30;20063;-58
2022/10/16 07:19:25;;;;;;;9.63;3.58;;;;;;;13.22;100.00;101193.94;4093547;30;10000816;-60
2022/10/16 07:21:57;;;;;;;19.10;5.43;;;;;;;13.32;100.00;101204.88;4751482;30;20056;-60
2022/10/16 07:24:25;;;;;;;10.18;3.72;;;;;;;13.33;100.00;101211.19;4750718;30;20056;-59
2022/10/16 07:26:52;;;;;;;11.93;4.30;;;;;;;13.39;100.00;101210.06;4750087;30;20411;-59
2022/10/16 07:29:21;;;;;;;14.90;4.00;;;;;;;13.53;100.00;101224.81;4750022;30;20051;-55
2022/10/16 07:31:49;;;;;;;14.52;4.22;;;;;;;13.63;100.00;101226.69;4750440;30;20072;-59
2022/10/16 07:34:19;;;;;;;11.07;3.80;;;;;;;13.55;100.00;101228.09;4745157;30;20508;-60
2022/10/16 07:36:51;;;;;;;6.65;3.20;;;;;;;13.47;100.00;101234.16;4751508;30;20071;-59
2022/10/16 07:39:19;;;;;;;10.43;3.85;;;;;;;13.44;100.00;101240.16;4750250;30;20044;-54
2022/10/16 07:41:47;;;;;;;11.35;3.80;;;;;;;13.45;100.00;101241.00;4765218;30;20416;-53
2022/10/16 07:44:16;;;;;;;6.88;3.05;;;;;;;13.42;100.00;101247.81;4749983;30;20492;-55
2022/10/16 07:46:44;;;;;;;13.60;3.88;;;;;;;13.56;100.00;101243.41;4750433;30;20079;-58
2022/10/16 07:49:11;;;;;;;10.27;3.88;;;;;;;13.57;100.00;101247.00;4752376;30;20056;-55
2022/10/16 07:51:39;;;;;;;16.02;4.40;;;;;;;13.55;100.00;101251.94;4750961;30;20496;-60
2022/10/16 07:54:11;;;;;;;9.32;3.50;;;;;;;13.60;100.00;101258.19;4752708;30;20559;-56
2022/10/16 07:56:39;;;;;;;8.23;3.33;;;;;;;13.66;100.00;101258.19;4740109;30;20096;-59
2022/10/16 07:59:10;;;;;;;9.10;3.20;;;;;;;13.73;100.00;101265.00;4749919;30;20048;-60
2022/10/16 08:01:38;;;;;;;6.97;2.63;;;;;;;13.63;100.00;101262.28;4748723;30;20056;-61
2022/10/16 08:04:06;;;;;;;7.75;3.15;;;;;;;13.56;100.00;101265.31;4763129;30;20078;-61
2022/10/16 08:06:37;;;;;;;13.57;3.30;;;;;;;13.58;100.00;101268.59;4750583;30;20056;-57
2022/10/16 08:09:08;;;;;;;11.70;4.05;;;;;;;13.67;100.00;101276.28;4764754;30;20468;-61
2022/10/16 08:11:35;;;;;;;8.52;2.90;;;;;;;13.78;100.00;101283.34;4762763;30;20040;-56
2022/10/16 08:14:03;;;;;;;14.20;4.30;;;;;;;13.70;100.00;101281.19;4764268;30;20124;-59
2022/10/16 08:16:31;;;;;;;9.25;3.47;;;;;;;13.66;100.00;101291.03;4765114;30;20048;-57
2022/10/16 08:18:58;;;;;;;9.50;3.05;;;;;;;13.71;100.00;101294.59;4758093;30;20068;-59
2022/10/16 08:21:26;;;;;;;10.95;2.70;;;;;;;13.64;100.00;101286.69;4761615;30;20044;-55
2022/10/16 08:23:54;;;;;;;7.57;3.05;;;;;;;13.65;100.00;101295.72;4761702;30;20419;-59
2022/10/16 08:26:26;;;;;;;10.43;3.72;;;;;;;13.75;100.00;101300.34;4754768;30;20102;-57
2022/10/16 08:28:54;;;;;;;6.70;2.97;;;;;;;13.74;100.00;101306.94;4753589;30;20056;-57
2022/10/16 08:31:23;;;;;;;7.85;3.25;;;;;;;13.76;100.00;101319.25;4745223;30;20523;-53
2022/10/16 08:33:52;;;;;;;8.32;3.20;;;;;;;13.76;100.00;101319.25;4752806;30;20098;-60
2022/10/16 08:36:19;;;;;;;11.18;3.30;;;;;;;13.83;100.00;101321.69;4752463;30;20068;-56
2022/10/16 08:38:51;;;;;;;10.07;3.22;;;;;;;13.81;100.00;101327.44;4751256;30;20052;-59
2022/10/16 08:41:24;;;;;;;10.48;3.08;;;;;;;13.87;100.00;101333.72;4751382;30;20382;-58
2022/10/16 08:44:00;;;;;;;9.48;2.75;;;;;;;13.79;100.00;101339.78;4748345;30;20127;-58
2022/10/16 08:46:57;;;;;;;8.88;3.08;;;;;;;13.94;100.00;101331.50;4752523;30;20060;-61
2022/10/16 08:49:25;;;;;;;8.95;3.03;;;;;;;13.85;100.00;101339.50;4752615;30;20040;-55
2022/10/16 08:51:53;;;;;;;5.32;2.70;;;;;;;13.83;100.00;101340.88;4744309;30;20049;-60
2022/10/16 08:54:31;;;;;;;5.53;2.53;;;;;;;13.94;100.00;101352.63;4748593;30;20420;-59
2022/10/16 08:57:12;;;;;;;7.95;3.20;;;;;;;13.99;100.00;101350.66;4765994;30;20433;-60
2022/10/16 08:59:39;;;;;;;11.40;3.95;;;;;;;14.03;100.00;101350.94;4749074;30;20043;-59
2022/10/16 09:02:26;;;;;;;9.80;3.20;;;;;;;14.04;100.00;101353.41;4748908;30;20069;-60
2022/10/16 09:05:22;;;;;;;7.70;3.03;;;;;;;14.11;100.00;101355.84;4752546;30;20082;-58
2022/10/16 09:07:52;;;;;;;9.15;2.78;;;;;;;14.16;100.00;101352.28;4750237;30;20060;-60
2022/10/16 09:10:46;;;;;;;5.82;2.85;;;;;;;14.14;100.00;101357.22;4750073;30;20488;-61
2022/10/16 09:13:28;;;;;;;6.35;2.78;;;;;;;14.11;100.00;101368.75;4731053;30;20044;-61
2022/10/16 09:16:22;;;;;;;8.43;3.13;;;;;;;14.09;100.00;101371.75;4763626;30;20048;-60
2022/10/16 09:19:04;;;;;;;8.93;3.15;;;;;;;14.12;100.00;101376.69;4738316;30;20056;-60
2022/10/16 09:21:36;;;;;;;11.07;2.60;;;;;;;14.11;100.00;101385.19;4738527;30;20052;-60
2022/10/16 09:24:18;;;;;;;11.65;3.08;;;;;;;14.16;100.00;101377.75;4751774;30;20059;-60
2022/10/16 09:26:47;;;;;;;8.85;3.03;;;;;;;14.21;100.00;101379.66;4750460;30;20085;-60
2022/10/16 09:29:16;;;;;;;9.07;3.22;;;;;;;14.22;100.00;101378.59;4751437;30;20072;-61
2022/10/16 09:31:44;;;;;;;7.88;3.15;;;;;;;14.22;100.00;101375.84;4752761;30;20051;-60
2022/10/16 09:34:24;;;;;;;9.25;3.00;;;;;;;14.30;100.00;101382.66;4743184;30;20055;-58
2022/10/16 09:36:52;;;;;;;12.07;3.40;;;;;;;14.40;100.00;101380.69;4738010;30;20041;-59
2022/10/16 09:39:19;;;;;;;10.15;3.75;;;;;;;14.42;100.00;101381.22;4754394;30;20094;-60
2022/10/16 09:41:47;;;;;;;6.13;2.50;;;;;;;14.37;100.00;101392.22;4754075;30;20110;-57
2022/10/16 09:44:29;;;;;;;6.57;2.97;;;;;;;14.35;100.00;101391.69;4750547;30;20040;-58
2022/10/16 09:47:04;;;;;;;9.00;3.15;;;;;;;14.39;100.00;101387.28;4751759;30;20512;-60
2022/10/16 09:49:32;;;;;;;7.97;2.58;;;;;;;14.46;100.00;101390.56;4765347;30;20044;-60
2022/10/16 09:52:14;;;;;;;13.40;3.13;;;;;;;14.45;100.00;101391.63;4751319;30;20052;-59
2022/10/16 09:55:14;;;;;;;12.57;3.10;;;;;;;14.46;100.00;101387.00;4745009;30;20496;-61
2022/10/16 09:57:53;;;;;;;9.07;3.13;;;;;;;14.48;100.00;101391.09;4738653;30;20057;-60
2022/10/16 10:00:23;;;;;;;9.07;3.25;;;;;;;14.48;100.00;101395.75;4750921;30;20106;-58
2022/10/16 10:02:51;;;;;;;12.95;3.22;;;;;;;14.49;100.00;101408.38;4750170;30;20044;-59
2022/10/16 10:05:22;;;;;;;13.23;3.55;;;;;;;14.52;100.00;101406.97;4750341;30;20048;-60
2022/10/16 10:07:56;;;;;;;12.90;3.22;;;;;;;14.54;100.00;101399.31;4756470;30;20060;-57
2022/10/16 10:10:26;;;;;;;9.43;2.90;;;;;;;14.58;100.00;101400.41;4761826;30;20053;-56
2022/10/16 10:12:55;;;;;;;10.35;3.40;;;;;;;14.68;100.00;101403.09;4759361;30;20052;-58
2022/10/16 10:15:23;;;;;;;14.13;3.22;;;;;;;14.68;100.00;101406.66;4761317;30;20037;-58
2022/10/16 10:17:52;;;;;;;12.05;3.40;;;;;;;14.72;100.00;101401.44;4747893;30;20049;-62
2022/10/16 10:20:34;;;;;;;15.45;3.45;;;;;;;14.68;100.00;101411.34;4749179;30;20052;-57
2022/10/16 10:23:23;;;;;;;10.23;3.58;;;;;;;14.68;100.00;101406.66;4750847;30;20044;-56
2022/10/16 10:26:10;;;;;;;10.80;3.60;;;;;;;14.70;100.00;101411.88;4751125;30;20052;-60
2022/10/16 10:29:05;;;;;;;18.17;3.47;;;;;;;14.71;100.00;101416.25;4755793;30;20052;-55
2022/10/16 10:31:34;;;;;;;17.00;4.32;;;;;;;14.77;100.00;101420.63;4759034;30;20499;-59
2022/10/16 10:34:20;;;;;;;15.23;3.25;;;;;;;14.80;100.00;101428.28;4755954;30;20040;-59
2022/10/16 10:36:54;;;;;;;10.18;3.03;;;;;;;14.89;100.00;101434.81;4760206;30;20052;-56
2022/10/16 10:39:25;;;;;;;16.10;3.38;;;;;;;14.87;100.00;101442.50;4747550;30;20064;-58
2022/10/16 10:42:23;;;;;;;14.80;3.45;;;;;;;14.83;100.00;101435.94;4743739;30;20431;-58
2022/10/16 10:44:57;;;;;;;14.73;3.83;;;;;;;14.85;100.00;101428.25;4755419;30;20048;-55
2022/10/16 10:47:43;;;;;;;15.90;4.55;;;;;;;14.86;100.00;101429.91;4754832;30;20094;-52
2022/10/16 10:50:31;;;;;;;17.50;4.10;;;;;;;14.90;100.00;101422.75;4754779;30;20508;-55
2022/10/16 10:53:36;;;;;;;14.93;3.50;;;;;;;14.92;100.00;101425.22;4753407;30;20576;-55
2022/10/16 10:56:19;;;;;;;;;;;;;;;15.01;100.00;101430.91;4725573;30;20059;-59
2022/10/16 10:59:06;;;;;;;12.75;3.00;;;;;;;15.02;100.00;101432.56;4749293;30;19926;-55
2022/10/16 11:02:10;;;;;;;12.82;3.83;;;;;;;15.05;98.95;101440.22;4747235;30;20056;-58
2022/10/16 11:05:05;;;;;;;15.75;3.42;;;;;;;15.11;98.37;101439.09;4751969;30;20040;-59
2022/10/16 11:07:41;;;;;;;16.03;3.40;;;;;;;15.15;94.21;101445.66;4755493;30;20100;-59
2022/10/16 11:10:20;;;;;;;13.80;3.50;;;;;;;15.20;95.11;101445.66;4752366;30;20102;-59
2022/10/16 11:13:10;;;;;;;11.88;3.22;;;;;;;15.26;94.51;101444.50;4755193;30;20048;-59
2022/10/16 11:15:40;;;;;;;12.68;3.85;;;;;;;15.38;96.07;101446.06;4744956;30;20060;-55
2022/10/16 11:18:17;;;;;;;15.15;3.47;;;;;;;15.39;92.82;101447.72;4750430;30;20500;-59
2022/10/16 11:20:54;;;;;;;;;;;;;;;15.42;94.44;101447.16;4753676;30;20048;-55
2022/10/16 11:23:28;;;;;;;11.63;2.88;;;;;;;15.43;91.75;101448.78;4754205;30;19926;-60
2022/10/16 11:26:00;;;;;;;13.85;3.53;;;;;;;15.43;91.95;101452.34;4752354;30;20546;-54
2022/10/16 11:28:33;;;;;;;11.00;3.03;;;;;;;15.49;92.89;101442.13;4753909;30;20504;-54
2022/10/16 11:31:26;;;;;;;14.55;4.07;;;;;;;15.51;93.12;101439.94;4767885;30;20086;-59
2022/10/16 11:34:16;;;;;;;15.65;3.40;;;;;;;15.48;93.59;101446.81;4727690;30;20102;-60
2022/10/16 11:37:03;;;;;;;13.77;3.50;;;;;;;15.46;94.56;101443.53;4755437;30;20052;-59
2022/10/16 11:39:31;;;;;;;16.50;5.10;;;;;;;15.43;93.39;101446.84;4754452;30;20680;-59
2022/10/16 11:42:01;;;;;;;12.70;3.30;;;;;;;15.42;94.44;101449.91;4092908;30;10000650;-59
2022/10/16 11:44:50;;;;;;;15.13;3.28;;;;;;;15.38;92.38;101451.56;4750351;30;20044;-60
2022/10/16 11:47:20;;;;;;;10.63;3.38;;;;;;;15.37;91.99;101455.41;4751664;30;20059;-58
2022/10/16 11:50:27;;;;;;;16.70;3.40;;;;;;;15.41;91.60;101457.28;4751181;30;20140;-60
2022/10/16 11:53:08;;;;;;;13.82;3.95;;;;;;;15.45;90.63;101454.81;4751686;30;20076;-56
2022/10/16 11:55:41;;;;;;;10.90;3.33;;;;;;;15.53;92.69;101459.69;4750636;30;20074;-59
2022/10/16 11:58:27;;;;;;;9.07;2.60;;;;;;;15.71;97.34;101467.28;4751639;30;20052;-59